CheckWX is a tool to help pilots better visualize weather data.  It is not intended as a substitute for an official pre-flight weather briefing.

08:02:28 UTC

DTTF TAF
Gafsa Ksar International Airport
Gafsa, Tunisia
TAF DTTF 190600Z 1907/1916 03017KT 6000 NSC PROB40 TEMPO 1910/1916 03019G29KT

Mar-19@
07:00 UTC

Mar-19 @ 07:00 UTC

Mar-19@
16:00 UTC

Mar-19 @ 16:00 UTC

TAF DTTF 190600Z 1907/1916 03017KT 6000 NSC
Wind
  • 030° at 17 KTS
Cloud Levels
  • No significant clouds

Mar-19@
10:00 UTC

Mar-19 @ 10:00 UTC

Mar-19@
16:00 UTC

Mar-19 @ 16:00 UTC

PROB40 TEMPO 1910/1916 03019G29KT

Temporary - 40% Likelihood

Temporary - 40% Likelihood during this time.

Wind
  • 030° at 19 KTS
  • {Gusting to 29 KTS